createdAt,value
2017-06-14T12:57:35.374Z,20.93
2017-06-14T12:58:37.997Z,21.02
2017-06-14T12:59:40.593Z,21.12
2017-06-14T13:00:44.902Z,20.83
2017-06-14T13:01:51.591Z,21.02
2017-06-14T13:02:54.132Z,20.83
2017-06-14T13:03:56.706Z,20.54
2017-06-14T13:04:59.474Z,20.34
2017-06-14T13:06:02.200Z,20.26
2017-06-14T13:07:04.769Z,19.78
2017-06-14T13:08:07.392Z,20.06
2017-06-14T13:09:10.045Z,19.98
2017-06-14T13:10:12.736Z,19.88
2017-06-14T13:11:15.329Z,19.87
2017-06-14T13:12:17.946Z,20.36
2017-06-14T13:13:20.625Z,20.83
2017-06-14T13:14:23.248Z,20.45
2017-06-14T13:15:25.853Z,20.36
2017-06-14T13:16:28.501Z,20.16
2017-06-14T13:17:31.249Z,20.26
2017-06-14T13:18:33.884Z,20.34
2017-06-14T13:19:36.512Z,20.92
2017-06-14T13:20:39.252Z,22.06
2017-06-14T13:21:41.960Z,22.33
2017-06-14T13:22:44.681Z,22.81
2017-06-14T13:23:47.404Z,24.04
2017-06-14T13:24:50.113Z,23.96
2017-06-14T13:25:52.717Z,23.19
2017-06-14T13:26:55.449Z,22.82
2017-06-14T13:27:58.062Z,22.63
2017-06-14T13:29:00.870Z,23.19
2017-06-14T13:30:03.677Z,23.68
2017-06-14T13:31:06.392Z,22.71
2017-06-14T13:32:09.215Z,23.19
2017-06-14T13:33:11.830Z,22.52
2017-06-14T13:34:14.419Z,22.33
2017-06-14T13:35:17.055Z,22.22
2017-06-14T13:36:19.676Z,22.60
2017-06-14T13:37:22.193Z,22.88
2017-06-14T13:38:24.828Z,23.27
2017-06-14T13:39:27.349Z,23.36
2017-06-14T13:40:29.917Z,23.65
2017-06-14T13:41:32.665Z,23.93
2017-06-14T13:42:35.172Z,24.03
2017-06-14T13:43:37.865Z,23.76
2017-06-14T13:44:40.510Z,22.16
2017-06-14T13:45:43.098Z,21.28
2017-06-14T13:46:45.739Z,21.77
2017-06-14T13:47:48.308Z,21.66
2017-06-14T13:48:50.870Z,22.33
2017-06-14T13:49:53.612Z,22.70
2017-06-14T13:50:56.323Z,23.17
2017-06-14T13:51:59.039Z,24.04
2017-06-14T13:53:01.774Z,24.61
2017-06-14T13:54:04.384Z,24.62
2017-06-14T13:55:07.028Z,24.05
2017-06-14T13:56:09.719Z,23.29
2017-06-14T13:57:12.381Z,23.10
2017-06-14T13:58:14.936Z,23.38
2017-06-14T13:59:17.503Z,23.36
2017-06-14T14:00:22.358Z,23.65
2017-06-14T14:01:25.988Z,24.14
2017-06-14T14:02:32.867Z,24.61
2017-06-14T14:03:35.275Z,24.51
2017-06-14T14:04:37.945Z,24.41
2017-06-14T14:05:40.518Z,24.90
2017-06-14T14:06:43.261Z,25.09
2017-06-14T14:07:46.020Z,25.28
2017-06-14T14:08:48.631Z,24.90
2017-06-14T14:09:51.203Z,24.80
2017-06-14T14:10:53.944Z,24.71
2017-06-14T14:11:56.683Z,24.61
2017-06-14T14:12:59.388Z,24.72
2017-06-14T14:14:02.139Z,24.90
2017-06-14T14:15:04.863Z,25.19
2017-06-14T14:16:07.612Z,25.08
2017-06-14T14:17:10.403Z,25.66
2017-06-14T14:18:13.144Z,25.85
2017-06-14T14:19:17.147Z,26.12
2017-06-14T14:20:18.692Z,26.14
2017-06-14T14:21:21.354Z,25.39
2017-06-14T14:22:23.968Z,24.92
2017-06-14T14:23:26.600Z,23.97
2017-06-14T14:24:29.326Z,23.58
2017-06-14T14:25:32.083Z,23.66
2017-06-14T14:26:34.700Z,24.51
2017-06-14T14:27:37.281Z,25.27
2017-06-14T14:28:39.855Z,26.12
2017-06-14T14:29:42.465Z,27.08
2017-06-14T14:30:45.174Z,27.55
2017-06-14T14:31:47.943Z,27.00
2017-06-14T14:32:50.546Z,26.06
2017-06-14T14:33:53.076Z,25.20
2017-06-14T14:34:55.603Z,25.19
2017-06-14T14:35:58.183Z,26.12
2017-06-14T14:37:00.874Z,26.51
2017-06-14T14:38:03.503Z,27.56
2017-06-14T14:39:06.131Z,27.64
2017-06-14T14:40:08.856Z,28.59
2017-06-14T14:41:11.562Z,28.48
2017-06-14T14:42:14.305Z,29.25
2017-06-14T14:43:17.397Z,29.44
2017-06-14T14:44:19.702Z,29.93
2017-06-14T14:45:22.323Z,30.31
2017-06-14T14:46:24.946Z,29.93
2017-06-14T14:47:27.613Z,29.36
2017-06-14T14:48:30.240Z,28.99
2017-06-14T14:49:32.857Z,28.70
2017-06-14T14:50:35.490Z,28.59
2017-06-14T14:51:38.202Z,28.40
2017-06-14T14:52:40.921Z,29.44
2017-06-14T14:53:43.641Z,29.25
2017-06-14T14:54:46.358Z,29.63
2017-06-14T14:55:49.078Z,29.73
2017-06-14T14:56:51.631Z,29.36
2017-06-14T14:57:54.234Z,28.61
2017-06-14T14:58:56.823Z,28.89
2017-06-14T14:59:59.449Z,28.41
2017-06-14T15:01:03.160Z,28.30
2017-06-14T15:02:08.731Z,28.59
2017-06-14T15:03:11.257Z,29.15
2017-06-14T15:04:13.895Z,29.62
2017-06-14T15:05:16.519Z,29.72
2017-06-14T15:06:19.350Z,30.57
2017-06-14T15:07:21.862Z,30.49
2017-06-14T15:08:24.493Z,30.95
2017-06-14T15:09:27.222Z,31.43
2017-06-14T15:10:29.930Z,31.80
2017-06-14T15:11:32.643Z,32.18
2017-06-14T15:12:35.403Z,32.38
2017-06-14T15:13:38.005Z,31.70
2017-06-14T15:14:40.704Z,31.61
2017-06-14T15:15:43.372Z,31.99
2017-06-14T15:16:46.013Z,30.66
2017-06-14T15:17:48.633Z,30.77
2017-06-14T15:18:51.285Z,29.81
2017-06-14T15:19:53.960Z,29.62
2017-06-14T15:20:56.610Z,29.62
2017-06-14T15:22:00.220Z,29.72
2017-06-14T15:23:02.780Z,29.62
2017-06-14T15:24:05.348Z,29.62
2017-06-14T15:25:07.880Z,29.72
2017-06-14T15:26:10.580Z,30.38
2017-06-14T15:27:13.144Z,30.95
2017-06-14T15:28:15.790Z,30.85
2017-06-14T15:29:18.419Z,30.39
2017-06-14T15:30:21.194Z,30.19
2017-06-14T15:31:23.923Z,30.57
2017-06-14T15:32:26.650Z,30.39
2017-06-14T15:33:29.357Z,29.54
2017-06-14T15:34:32.853Z,28.49
2017-06-14T15:35:35.485Z,28.20
2017-06-14T15:36:38.046Z,28.22
2017-06-14T15:37:40.717Z,27.56
2017-06-14T15:38:43.437Z,26.40
2017-06-14T15:39:46.169Z,26.51
2017-06-14T15:40:48.894Z,26.11
2017-06-14T15:41:51.607Z,26.78
2017-06-14T15:42:54.225Z,27.55
2017-06-14T15:43:56.859Z,27.62
2017-06-14T15:44:59.495Z,28.58
2017-06-14T15:46:02.131Z,29.33
2017-06-14T15:47:04.868Z,29.80
2017-06-14T15:48:07.383Z,30.65
2017-06-14T15:49:10.013Z,30.93
2017-06-14T15:50:12.640Z,31.61
2017-06-14T15:51:15.248Z,31.59
2017-06-14T15:52:17.900Z,31.49
2017-06-14T15:53:20.683Z,32.44
2017-06-14T15:54:23.294Z,32.55
2017-06-14T15:55:25.958Z,31.99
2017-06-14T15:56:28.520Z,31.40
2017-06-14T15:57:31.120Z,31.79
2017-06-14T15:58:33.854Z,32.07
2017-06-14T15:59:36.346Z,31.88
2017-06-14T16:00:40.896Z,31.41
2017-06-14T16:01:49.142Z,31.34
2017-06-14T16:02:51.431Z,31.59
2017-06-14T16:03:54.111Z,32.07
2017-06-14T16:04:56.667Z,32.44
2017-06-14T16:05:59.413Z,33.11
2017-06-14T16:07:02.179Z,32.92
2017-06-14T16:08:04.986Z,32.84
2017-06-14T16:09:07.727Z,32.28
2017-06-14T16:10:11.446Z,31.80
2017-06-14T16:11:15.421Z,32.65
2017-06-14T16:12:19.144Z,33.01
2017-06-14T16:13:23.058Z,33.50
2017-06-14T16:14:26.607Z,33.96
2017-06-14T16:15:30.339Z,34.15
2017-06-14T16:16:34.043Z,34.15
2017-06-14T16:17:36.565Z,34.63
2017-06-14T16:18:39.217Z,34.63
2017-06-14T16:19:42.275Z,34.81
2017-06-14T16:20:45.078Z,35.11
2017-06-14T16:21:47.810Z,34.92
2017-06-14T16:22:50.649Z,34.44
2017-06-14T16:23:53.391Z,34.81
2017-06-14T16:24:56.112Z,35.10
2017-06-14T16:25:58.745Z,35.36
2017-06-14T16:27:01.389Z,36.04
2017-06-14T16:28:04.022Z,36.05
2017-06-14T16:29:07.843Z,35.59
2017-06-14T16:30:10.349Z,35.21
2017-06-14T16:31:12.924Z,34.55
2017-06-14T16:32:15.472Z,34.15
2017-06-14T16:33:18.424Z,34.07
2017-06-14T16:34:21.299Z,33.13
2017-06-14T16:35:24.081Z,32.57
2017-06-14T16:36:26.836Z,31.80
2017-06-14T16:37:31.478Z,31.87
2017-06-14T16:38:34.181Z,33.21
2017-06-14T16:39:37.375Z,33.67
2017-06-14T16:40:40.037Z,34.25
2017-06-14T16:41:42.902Z,34.23
2017-06-14T16:42:45.448Z,35.19
2017-06-14T16:43:48.134Z,34.98
2017-06-14T16:44:50.687Z,35.75
2017-06-14T16:45:53.286Z,36.40
2017-06-14T16:46:55.979Z,36.88
2017-06-14T16:47:58.648Z,37.36
2017-06-14T16:49:01.333Z,37.45
2017-06-14T16:50:04.101Z,36.42
2017-06-14T16:51:06.768Z,36.05
2017-06-14T16:52:09.507Z,35.57
2017-06-14T16:53:12.147Z,35.49
2017-06-14T16:54:14.794Z,35.02
2017-06-14T16:55:17.483Z,34.44
2017-06-14T16:56:20.128Z,34.45
2017-06-14T16:57:22.959Z,33.98
2017-06-14T16:58:25.690Z,33.59
2017-06-14T16:59:28.425Z,33.40
2017-06-14T17:00:31.293Z,33.58
2017-06-14T17:01:40.975Z,33.86
2017-06-14T17:02:43.716Z,34.34
2017-06-14T17:03:46.381Z,35.67
2017-06-14T17:04:49.206Z,36.34
2017-06-14T17:05:51.931Z,36.63
2017-06-14T17:06:54.456Z,36.82
2017-06-14T17:07:57.122Z,36.71
2017-06-14T17:08:59.759Z,36.79
2017-06-14T17:10:02.282Z,37.63
2017-06-14T17:11:04.894Z,38.78
2017-06-14T17:12:08.260Z,39.81
2017-06-14T17:13:10.959Z,40.08
2017-06-14T17:14:13.677Z,40.84
2017-06-14T17:15:16.285Z,40.84
2017-06-14T17:16:18.907Z,41.51
2017-06-14T17:17:21.464Z,41.30
2017-06-14T17:18:24.063Z,41.49
2017-06-14T17:19:26.797Z,42.54
2017-06-14T17:20:29.418Z,43.09
2017-06-14T17:21:32.043Z,43.57
2017-06-14T17:22:34.659Z,43.66
2017-06-14T17:23:37.379Z,44.05
2017-06-14T17:24:40.187Z,43.66
2017-06-14T17:25:42.901Z,43.29
2017-06-14T17:26:45.632Z,43.38
2017-06-14T17:27:48.243Z,43.38
2017-06-14T17:28:50.895Z,43.95
2017-06-14T17:29:53.545Z,43.86
2017-06-14T17:30:56.258Z,43.30
2017-06-14T17:31:59.050Z,43.29
2017-06-14T17:33:01.785Z,43.57
2017-06-14T17:34:04.936Z,44.15
2017-06-14T17:35:08.037Z,44.53
2017-06-14T17:36:11.023Z,45.01
2017-06-14T17:37:13.621Z,45.10
2017-06-14T17:38:16.136Z,44.53
2017-06-14T17:39:18.709Z,45.01
2017-06-14T17:40:21.325Z,45.10
2017-06-14T17:44:29.330Z,46.48
